sensor_id;sensor_type;location;lat;lon;timestamp;P1;durP1;ratioP1;P2;durP2;ratioP2
14817;SDS011;7500;57.698;11.986;2023-04-19T00:00:52;4.00;;;1.00;;
14817;SDS011;7500;57.698;11.986;2023-04-19T00:03:19;1.60;;;1.00;;
14817;SDS011;7500;57.698;11.986;2023-04-19T00:05:48;2.30;;;0.77;;
14817;SDS011;7500;57.698;11.986;2023-04-19T00:08:17;1.83;;;0.70;;
14817;SDS011;7500;57.698;11.986;2023-04-19T00:10:44;2.53;;;0.90;;
14817;SDS011;7500;57.698;11.986;2023-04-19T00:13:12;2.27;;;0.87;;
14817;SDS011;7500;57.698;11.986;2023-04-19T00:15:39;1.37;;;0.77;;
14817;SDS011;7500;57.698;11.986;2023-04-19T00:18:06;0.80;;;0.63;;
14817;SDS011;7500;57.698;11.986;2023-04-19T00:20:32;1.90;;;0.97;;
14817;SDS011;7500;57.698;11.986;2023-04-19T00:22:59;2.83;;;1.00;;
14817;SDS011;7500;57.698;11.986;2023-04-19T00:25:25;4.23;;;1.10;;
14817;SDS011;7500;57.698;11.986;2023-04-19T00:27:52;1.13;;;0.80;;
14817;SDS011;7500;57.698;11.986;2023-04-19T00:30:20;4.67;;;0.87;;
14817;SDS011;7500;57.698;11.986;2023-04-19T00:32:47;3.57;;;0.90;;
14817;SDS011;7500;57.698;11.986;2023-04-19T00:35:14;3.93;;;0.83;;
14817;SDS011;7500;57.698;11.986;2023-04-19T00:37:40;1.83;;;1.10;;
14817;SDS011;7500;57.698;11.986;2023-04-19T00:40:07;5.53;;;1.20;;
14817;SDS011;7500;57.698;11.986;2023-04-19T00:42:34;5.70;;;1.30;;
14817;SDS011;7500;57.698;11.986;2023-04-19T00:45:01;2.87;;;1.30;;
14817;SDS011;7500;57.698;11.986;2023-04-19T00:47:29;4.77;;;1.47;;
14817;SDS011;7500;57.698;11.986;2023-04-19T00:49:56;2.57;;;1.20;;
14817;SDS011;7500;57.698;11.986;2023-04-19T00:52:22;4.27;;;1.40;;
14817;SDS011;7500;57.698;11.986;2023-04-19T00:54:50;3.70;;;1.30;;
14817;SDS011;7500;57.698;11.986;2023-04-19T00:57:17;1.73;;;1.37;;
14817;SDS011;7500;57.698;11.986;2023-04-19T00:59:43;7.20;;;1.57;;
14817;SDS011;7500;57.698;11.986;2023-04-19T01:02:10;3.27;;;1.40;;
14817;SDS011;7500;57.698;11.986;2023-04-19T01:04:38;6.70;;;1.30;;
14817;SDS011;7500;57.698;11.986;2023-04-19T01:07:05;2.87;;;1.07;;
14817;SDS011;7500;57.698;11.986;2023-04-19T01:09:32;5.33;;;1.10;;
14817;SDS011;7500;57.698;11.986;2023-04-19T01:11:59;6.87;;;1.20;;
14817;SDS011;7500;57.698;11.986;2023-04-19T01:14:27;8.87;;;1.77;;
14817;SDS011;7500;57.698;11.986;2023-04-19T01:16:54;6.23;;;1.47;;
14817;SDS011;7500;57.698;11.986;2023-04-19T01:19:22;7.63;;;1.70;;
14817;SDS011;7500;57.698;11.986;2023-04-19T01:21:50;6.30;;;1.70;;
14817;SDS011;7500;57.698;11.986;2023-04-19T01:24:18;6.10;;;1.53;;
14817;SDS011;7500;57.698;11.986;2023-04-19T01:26:44;7.13;;;1.67;;
14817;SDS011;7500;57.698;11.986;2023-04-19T01:29:11;7.20;;;1.50;;
14817;SDS011;7500;57.698;11.986;2023-04-19T01:31:38;2.77;;;1.30;;
14817;SDS011;7500;57.698;11.986;2023-04-19T01:34:04;4.20;;;1.43;;
14817;SDS011;7500;57.698;11.986;2023-04-19T01:36:31;5.33;;;1.57;;
14817;SDS011;7500;57.698;11.986;2023-04-19T01:38:58;4.67;;;1.40;;
14817;SDS011;7500;57.698;11.986;2023-04-19T01:41:26;6.17;;;1.40;;
14817;SDS011;7500;57.698;11.986;2023-04-19T01:43:53;1.57;;;0.90;;
14817;SDS011;7500;57.698;11.986;2023-04-19T01:46:20;2.90;;;1.17;;
14817;SDS011;7500;57.698;11.986;2023-04-19T01:48:47;2.20;;;1.00;;
14817;SDS011;7500;57.698;11.986;2023-04-19T01:51:14;2.47;;;1.00;;
14817;SDS011;7500;57.698;11.986;2023-04-19T01:53:41;3.33;;;1.20;;
14817;SDS011;7500;57.698;11.986;2023-04-19T01:56:08;1.60;;;1.07;;
14817;SDS011;7500;57.698;11.986;2023-04-19T01:58:36;1.03;;;0.90;;
14817;SDS011;7500;57.698;11.986;2023-04-19T02:01:02;2.83;;;1.30;;
14817;SDS011;7500;57.698;11.986;2023-04-19T02:03:29;2.63;;;1.10;;
14817;SDS011;7500;57.698;11.986;2023-04-19T02:05:56;3.23;;;1.60;;
14817;SDS011;7500;57.698;11.986;2023-04-19T02:08:22;4.10;;;1.40;;
14817;SDS011;7500;57.698;11.986;2023-04-19T02:10:49;3.33;;;1.10;;
14817;SDS011;7500;57.698;11.986;2023-04-19T02:13:16;3.97;;;1.07;;
14817;SDS011;7500;57.698;11.986;2023-04-19T02:15:44;2.83;;;1.00;;
14817;SDS011;7500;57.698;11.986;2023-04-19T02:18:11;1.33;;;0.87;;
14817;SDS011;7500;57.698;11.986;2023-04-19T02:20:37;1.20;;;1.00;;
14817;SDS011;7500;57.698;11.986;2023-04-19T02:23:04;3.93;;;0.83;;
14817;SDS011;7500;57.698;11.986;2023-04-19T02:25:30;3.90;;;1.03;;
14817;SDS011;7500;57.698;11.986;2023-04-19T02:27:57;5.87;;;1.17;;
14817;SDS011;7500;57.698;11.986;2023-04-19T02:30:24;2.50;;;1.10;;
14817;SDS011;7500;57.698;11.986;2023-04-19T02:32:52;2.53;;;0.87;;
14817;SDS011;7500;57.698;11.986;2023-04-19T02:35:19;1.77;;;1.00;;
14817;SDS011;7500;57.698;11.986;2023-04-19T02:37:45;5.40;;;1.10;;
14817;SDS011;7500;57.698;11.986;2023-04-19T02:40:12;3.23;;;1.20;;
14817;SDS011;7500;57.698;11.986;2023-04-19T02:42:40;2.03;;;1.10;;
14817;SDS011;7500;57.698;11.986;2023-04-19T02:45:07;6.13;;;0.93;;
14817;SDS011;7500;57.698;11.986;2023-04-19T02:47:34;7.13;;;1.33;;
14817;SDS011;7500;57.698;11.986;2023-04-19T02:50:02;8.53;;;1.30;;
14817;SDS011;7500;57.698;11.986;2023-04-19T02:52:29;1.17;;;1.07;;
14817;SDS011;7500;57.698;11.986;2023-04-19T02:54:55;4.27;;;1.30;;
14817;SDS011;7500;57.698;11.986;2023-04-19T02:57:22;2.80;;;1.10;;
14817;SDS011;7500;57.698;11.986;2023-04-19T02:59:49;4.53;;;1.03;;
14817;SDS011;7500;57.698;11.986;2023-04-19T03:02:15;3.40;;;1.40;;
14817;SDS011;7500;57.698;11.986;2023-04-19T03:04:42;2.77;;;1.07;;
14817;SDS011;7500;57.698;11.986;2023-04-19T03:07:10;1.00;;;0.80;;
14817;SDS011;7500;57.698;11.986;2023-04-19T03:09:37;4.17;;;1.10;;
14817;SDS011;7500;57.698;11.986;2023-04-19T03:12:05;1.33;;;0.93;;
14817;SDS011;7500;57.698;11.986;2023-04-19T03:14:32;1.83;;;1.00;;
14817;SDS011;7500;57.698;11.986;2023-04-19T03:16:59;2.90;;;1.20;;
14817;SDS011;7500;57.698;11.986;2023-04-19T03:19:25;3.50;;;1.10;;
14817;SDS011;7500;57.698;11.986;2023-04-19T03:21:52;3.37;;;1.20;;
14817;SDS011;7500;57.698;11.986;2023-04-19T03:24:22;2.53;;;1.03;;
14817;SDS011;7500;57.698;11.986;2023-04-19T03:26:53;3.10;;;1.17;;
14817;SDS011;7500;57.698;11.986;2023-04-19T03:29:20;4.20;;;1.47;;
14817;SDS011;7500;57.698;11.986;2023-04-19T03:31:47;11.83;;;4.60;;
14817;SDS011;7500;57.698;11.986;2023-04-19T03:34:14;6.43;;;2.90;;
14817;SDS011;7500;57.698;11.986;2023-04-19T03:36:40;3.90;;;2.23;;
14817;SDS011;7500;57.698;11.986;2023-04-19T03:39:07;4.20;;;1.93;;
14817;SDS011;7500;57.698;11.986;2023-04-19T03:41:35;5.03;;;2.10;;
14817;SDS011;7500;57.698;11.986;2023-04-19T03:44:02;5.83;;;1.93;;
14817;SDS011;7500;57.698;11.986;2023-04-19T03:46:28;4.73;;;1.50;;
14817;SDS011;7500;57.698;11.986;2023-04-19T03:48:55;2.23;;;1.23;;
14817;SDS011;7500;57.698;11.986;2023-04-19T03:51:22;3.83;;;1.40;;
14817;SDS011;7500;57.698;11.986;2023-04-19T03:53:49;5.43;;;1.30;;
14817;SDS011;7500;57.698;11.986;2023-04-19T03:56:15;3.23;;;1.30;;
14817;SDS011;7500;57.698;11.986;2023-04-19T03:58:43;3.37;;;1.20;;
14817;SDS011;7500;57.698;11.986;2023-04-19T04:01:16;2.40;;;1.30;;
14817;SDS011;7500;57.698;11.986;2023-04-19T04:03:43;8.13;;;1.47;;
14817;SDS011;7500;57.698;11.986;2023-04-19T04:06:09;4.53;;;1.13;;
14817;SDS011;7500;57.698;11.986;2023-04-19T04:08:36;5.47;;;1.33;;
14817;SDS011;7500;57.698;11.986;2023-04-19T04:11:03;5.37;;;1.30;;
14817;SDS011;7500;57.698;11.986;2023-04-19T04:13:29;2.70;;;1.20;;
14817;SDS011;7500;57.698;11.986;2023-04-19T04:15:57;2.90;;;1.40;;
14817;SDS011;7500;57.698;11.986;2023-04-19T04:18:24;4.03;;;1.40;;
14817;SDS011;7500;57.698;11.986;2023-04-19T04:20:52;5.50;;;1.60;;
14817;SDS011;7500;57.698;11.986;2023-04-19T04:23:19;7.03;;;1.53;;
14817;SDS011;7500;57.698;11.986;2023-04-19T04:25:46;11.37;;;1.50;;
14817;SDS011;7500;57.698;11.986;2023-04-19T04:28:13;6.97;;;1.70;;
14817;SDS011;7500;57.698;11.986;2023-04-19T04:30:40;4.97;;;1.63;;
14817;SDS011;7500;57.698;11.986;2023-04-19T04:33:08;6.23;;;1.87;;
14817;SDS011;7500;57.698;11.986;2023-04-19T04:35:36;7.27;;;1.90;;
14817;SDS011;7500;57.698;11.986;2023-04-19T04:38:02;5.40;;;1.53;;
14817;SDS011;7500;57.698;11.986;2023-04-19T04:40:29;7.10;;;2.00;;
14817;SDS011;7500;57.698;11.986;2023-04-19T04:42:56;11.63;;;1.90;;
14817;SDS011;7500;57.698;11.986;2023-04-19T04:45:25;12.07;;;1.93;;
14817;SDS011;7500;57.698;11.986;2023-04-19T04:47:53;4.70;;;1.77;;
14817;SDS011;7500;57.698;11.986;2023-04-19T04:50:21;11.50;;;1.70;;
14817;SDS011;7500;57.698;11.986;2023-04-19T04:52:48;6.70;;;1.80;;
14817;SDS011;7500;57.698;11.986;2023-04-19T04:55:14;12.80;;;2.23;;
14817;SDS011;7500;57.698;11.986;2023-04-19T04:57:41;15.10;;;1.77;;
14817;SDS011;7500;57.698;11.986;2023-04-19T05:00:08;6.63;;;1.50;;
14817;SDS011;7500;57.698;11.986;2023-04-19T05:02:35;11.77;;;1.60;;
14817;SDS011;7500;57.698;11.986;2023-04-19T05:05:02;10.20;;;0.90;;
14817;SDS011;7500;57.698;11.986;2023-04-19T05:07:30;7.53;;;1.33;;
14817;SDS011;7500;57.698;11.986;2023-04-19T05:09:57;4.87;;;0.90;;
14817;SDS011;7500;57.698;11.986;2023-04-19T05:12:24;5.90;;;0.60;;
14817;SDS011;7500;57.698;11.986;2023-04-19T05:14:51;5.83;;;0.60;;
14817;SDS011;7500;57.698;11.986;2023-04-19T05:17:17;2.57;;;0.60;;
14817;SDS011;7500;57.698;11.986;2023-04-19T05:19:44;3.67;;;0.80;;
14817;SDS011;7500;57.698;11.986;2023-04-19T05:22:11;2.00;;;0.50;;
14817;SDS011;7500;57.698;11.986;2023-04-19T05:24:39;3.50;;;0.67;;
14817;SDS011;7500;57.698;11.986;2023-04-19T05:27:05;2.07;;;0.63;;
14817;SDS011;7500;57.698;11.986;2023-04-19T05:29:33;0.87;;;0.50;;
14817;SDS011;7500;57.698;11.986;2023-04-19T05:32:00;0.67;;;0.50;;
14817;SDS011;7500;57.698;11.986;2023-04-19T05:34:27;1.57;;;0.40;;
14817;SDS011;7500;57.698;11.986;2023-04-19T05:36:54;2.00;;;0.60;;
14817;SDS011;7500;57.698;11.986;2023-04-19T05:39:21;1.93;;;0.70;;
14817;SDS011;7500;57.698;11.986;2023-04-19T05:41:49;4.50;;;1.00;;
14817;SDS011;7500;57.698;11.986;2023-04-19T05:44:15;0.50;;;0.50;;
14817;SDS011;7500;57.698;11.986;2023-04-19T05:46:42;2.70;;;0.60;;
14817;SDS011;7500;57.698;11.986;2023-04-19T05:49:09;3.17;;;0.80;;
14817;SDS011;7500;57.698;11.986;2023-04-19T05:51:36;4.77;;;0.93;;
14817;SDS011;7500;57.698;11.986;2023-04-19T05:54:02;3.27;;;0.60;;
14817;SDS011;7500;57.698;11.986;2023-04-19T05:56:29;3.13;;;0.80;;
14817;SDS011;7500;57.698;11.986;2023-04-19T05:58:57;1.33;;;0.60;;
14817;SDS011;7500;57.698;11.986;2023-04-19T06:01:25;1.23;;;0.60;;
14817;SDS011;7500;57.698;11.986;2023-04-19T06:03:51;3.90;;;0.83;;
14817;SDS011;7500;57.698;11.986;2023-04-19T06:06:18;1.63;;;0.70;;
14817;SDS011;7500;57.698;11.986;2023-04-19T06:08:45;0.90;;;0.40;;
14817;SDS011;7500;57.698;11.986;2023-04-19T06:11:11;4.17;;;1.20;;
14817;SDS011;7500;57.698;11.986;2023-04-19T06:13:38;2.03;;;0.70;;
14817;SDS011;7500;57.698;11.986;2023-04-19T06:16:07;1.47;;;0.50;;
14817;SDS011;7500;57.698;11.986;2023-04-19T06:18:33;1.33;;;0.53;;
14817;SDS011;7500;57.698;11.986;2023-04-19T06:21:00;1.60;;;1.10;;
14817;SDS011;7500;57.698;11.986;2023-04-19T06:23:27;2.90;;;0.73;;
14817;SDS011;7500;57.698;11.986;2023-04-19T06:25:53;2.50;;;0.80;;
14817;SDS011;7500;57.698;11.986;2023-04-19T06:28:20;2.03;;;0.43;;
14817;SDS011;7500;57.698;11.986;2023-04-19T06:30:46;2.03;;;0.70;;
14817;SDS011;7500;57.698;11.986;2023-04-19T06:33:15;2.23;;;0.40;;
14817;SDS011;7500;57.698;11.986;2023-04-19T06:35:41;3.30;;;0.70;;
14817;SDS011;7500;57.698;11.986;2023-04-19T06:38:08;1.17;;;0.43;;
14817;SDS011;7500;57.698;11.986;2023-04-19T06:40:34;0.90;;;0.57;;
14817;SDS011;7500;57.698;11.986;2023-04-19T06:43:01;0.97;;;0.77;;
14817;SDS011;7500;57.698;11.986;2023-04-19T06:45:28;1.33;;;0.50;;
14817;SDS011;7500;57.698;11.986;2023-04-19T06:47:54;3.73;;;0.80;;
14817;SDS011;7500;57.698;11.986;2023-04-19T06:50:23;3.20;;;0.80;;
14817;SDS011;7500;57.698;11.986;2023-04-19T06:52:49;2.33;;;0.60;;
14817;SDS011;7500;57.698;11.986;2023-04-19T06:55:16;3.43;;;0.43;;
14817;SDS011;7500;57.698;11.986;2023-04-19T06:57:42;1.80;;;0.60;;
14817;SDS011;7500;57.698;11.986;2023-04-19T07:00:09;3.07;;;0.70;;
14817;SDS011;7500;57.698;11.986;2023-04-19T07:02:38;0.87;;;0.60;;
14817;SDS011;7500;57.698;11.986;2023-04-19T07:05:05;0.57;;;0.30;;
14817;SDS011;7500;57.698;11.986;2023-04-19T07:07:33;0.60;;;0.30;;
14817;SDS011;7500;57.698;11.986;2023-04-19T07:10:02;1.47;;;0.50;;
14817;SDS011;7500;57.698;11.986;2023-04-19T07:12:28;0.93;;;0.50;;
14817;SDS011;7500;57.698;11.986;2023-04-19T07:14:55;1.50;;;0.40;;
14817;SDS011;7500;57.698;11.986;2023-04-19T07:17:22;1.23;;;0.60;;
14817;SDS011;7500;57.698;11.986;2023-04-19T07:19:48;1.13;;;0.40;;
14817;SDS011;7500;57.698;11.986;2023-04-19T07:22:15;1.70;;;0.60;;
14817;SDS011;7500;57.698;11.986;2023-04-19T07:24:43;1.00;;;0.40;;
14817;SDS011;7500;57.698;11.986;2023-04-19T07:27:10;0.30;;;0.20;;
14817;SDS011;7500;57.698;11.986;2023-04-19T07:29:38;2.77;;;0.80;;
14817;SDS011;7500;57.698;11.986;2023-04-19T07:32:05;1.27;;;0.60;;
14817;SDS011;7500;57.698;11.986;2023-04-19T07:34:32;1.33;;;0.60;;
14817;SDS011;7500;57.698;11.986;2023-04-19T07:36:59;1.63;;;0.50;;
14817;SDS011;7500;57.698;11.986;2023-04-19T07:39:26;0.83;;;0.40;;
14817;SDS011;7500;57.698;11.986;2023-04-19T07:41:56;1.60;;;0.47;;
14817;SDS011;7500;57.698;11.986;2023-04-19T07:44:23;1.57;;;0.60;;
14817;SDS011;7500;57.698;11.986;2023-04-19T07:46:50;5.00;;;0.60;;
14817;SDS011;7500;57.698;11.986;2023-04-19T07:49:17;0.97;;;0.43;;
14817;SDS011;7500;57.698;11.986;2023-04-19T07:51:43;2.90;;;0.60;;
14817;SDS011;7500;57.698;11.986;2023-04-19T07:54:10;0.37;;;0.37;;
14817;SDS011;7500;57.698;11.986;2023-04-19T07:56:37;1.13;;;0.40;;
14817;SDS011;7500;57.698;11.986;2023-04-19T07:59:05;2.13;;;0.30;;
14817;SDS011;7500;57.698;11.986;2023-04-19T08:01:32;2.63;;;0.70;;
14817;SDS011;7500;57.698;11.986;2023-04-19T08:03:58;3.27;;;0.50;;
14817;SDS011;7500;57.698;11.986;2023-04-19T08:06:25;5.63;;;0.80;;
14817;SDS011;7500;57.698;11.986;2023-04-19T08:08:53;2.73;;;0.30;;
14817;SDS011;7500;57.698;11.986;2023-04-19T08:11:20;3.83;;;0.70;;
14817;SDS011;7500;57.698;11.986;2023-04-19T08:13:49;1.90;;;0.50;;
14817;SDS011;7500;57.698;11.986;2023-04-19T08:16:17;0.87;;;0.40;;
14817;SDS011;7500;57.698;11.986;2023-04-19T08:18:44;0.80;;;0.50;;
14817;SDS011;7500;57.698;11.986;2023-04-19T08:21:12;4.33;;;0.43;;
14817;SDS011;7500;57.698;11.986;2023-04-19T08:23:39;0.50;;;0.40;;
14817;SDS011;7500;57.698;11.986;2023-04-19T08:26:06;3.03;;;0.60;;
14817;SDS011;7500;57.698;11.986;2023-04-19T08:28:32;4.83;;;0.60;;
14817;SDS011;7500;57.698;11.986;2023-04-19T08:30:59;6.40;;;0.70;;
14817;SDS011;7500;57.698;11.986;2023-04-19T08:33:28;5.10;;;0.93;;
14817;SDS011;7500;57.698;11.986;2023-04-19T08:35:55;1.33;;;0.60;;
14817;SDS011;7500;57.698;11.986;2023-04-19T08:38:22;2.90;;;0.60;;
14817;SDS011;7500;57.698;11.986;2023-04-19T08:40:50;1.70;;;0.40;;
14817;SDS011;7500;57.698;11.986;2023-04-19T08:43:17;1.90;;;0.80;;
14817;SDS011;7500;57.698;11.986;2023-04-19T08:45:45;2.73;;;0.53;;
14817;SDS011;7500;57.698;11.986;2023-04-19T08:48:12;2.03;;;0.70;;
14817;SDS011;7500;57.698;11.986;2023-04-19T08:50:41;1.63;;;0.60;;
14817;SDS011;7500;57.698;11.986;2023-04-19T08:53:10;2.87;;;0.53;;
14817;SDS011;7500;57.698;11.986;2023-04-19T08:55:37;12.33;;;1.00;;
14817;SDS011;7500;57.698;11.986;2023-04-19T08:58:03;5.60;;;0.80;;
14817;SDS011;7500;57.698;11.986;2023-04-19T09:00:31;2.00;;;0.50;;
14817;SDS011;7500;57.698;11.986;2023-04-19T09:02:58;0.53;;;0.30;;
14817;SDS011;7500;57.698;11.986;2023-04-19T09:05:25;0.83;;;0.60;;
14817;SDS011;7500;57.698;11.986;2023-04-19T09:07:53;1.67;;;0.50;;
14817;SDS011;7500;57.698;11.986;2023-04-19T09:10:20;1.63;;;0.40;;
14817;SDS011;7500;57.698;11.986;2023-04-19T09:12:58;0.53;;;0.53;;
14817;SDS011;7500;57.698;11.986;2023-04-19T09:15:34;1.50;;;0.60;;
14817;SDS011;7500;57.698;11.986;2023-04-19T09:18:02;0.77;;;0.57;;
14817;SDS011;7500;57.698;11.986;2023-04-19T09:20:34;0.73;;;0.47;;
14817;SDS011;7500;57.698;11.986;2023-04-19T09:23:03;0.43;;;0.43;;
14817;SDS011;7500;57.698;11.986;2023-04-19T09:25:30;1.20;;;0.50;;
14817;SDS011;7500;57.698;11.986;2023-04-19T09:28:07;5.60;;;0.97;;
14817;SDS011;7500;57.698;11.986;2023-04-19T09:30:34;1.20;;;0.80;;
14817;SDS011;7500;57.698;11.986;2023-04-19T09:33:00;0.43;;;0.40;;
14817;SDS011;7500;57.698;11.986;2023-04-19T09:35:38;1.63;;;0.60;;
14817;SDS011;7500;57.698;11.986;2023-04-19T09:38:06;2.37;;;0.53;;
14817;SDS011;7500;57.698;11.986;2023-04-19T09:40:33;1.57;;;0.60;;
14817;SDS011;7500;57.698;11.986;2023-04-19T09:43:00;4.33;;;0.90;;
14817;SDS011;7500;57.698;11.986;2023-04-19T09:45:28;0.77;;;0.73;;
14817;SDS011;7500;57.698;11.986;2023-04-19T09:48:05;0.93;;;0.67;;
14817;SDS011;7500;57.698;11.986;2023-04-19T09:50:32;1.03;;;0.70;;
14817;SDS011;7500;57.698;11.986;2023-04-19T09:52:59;1.13;;;0.70;;
14817;SDS011;7500;57.698;11.986;2023-04-19T09:55:27;2.77;;;0.87;;
14817;SDS011;7500;57.698;11.986;2023-04-19T09:57:54;4.47;;;0.80;;
14817;SDS011;7500;57.698;11.986;2023-04-19T10:00:21;0.70;;;0.63;;
14817;SDS011;7500;57.698;11.986;2023-04-19T10:02:50;2.73;;;1.00;;
14817;SDS011;7500;57.698;11.986;2023-04-19T10:05:19;2.70;;;0.80;;
14817;SDS011;7500;57.698;11.986;2023-04-19T10:07:46;1.77;;;0.57;;
14817;SDS011;7500;57.698;11.986;2023-04-19T10:10:14;5.57;;;0.80;;
14817;SDS011;7500;57.698;11.986;2023-04-19T10:12:44;0.90;;;0.60;;
14817;SDS011;7500;57.698;11.986;2023-04-19T10:15:13;2.53;;;0.60;;
14817;SDS011;7500;57.698;11.986;2023-04-19T10:17:40;0.70;;;0.60;;
14817;SDS011;7500;57.698;11.986;2023-04-19T10:20:10;1.23;;;0.80;;
14817;SDS011;7500;57.698;11.986;2023-04-19T10:22:38;1.03;;;0.60;;
14817;SDS011;7500;57.698;11.986;2023-04-19T10:25:09;6.80;;;0.80;;
14817;SDS011;7500;57.698;11.986;2023-04-19T10:27:37;4.10;;;0.90;;
14817;SDS011;7500;57.698;11.986;2023-04-19T10:30:06;3.13;;;0.90;;
14817;SDS011;7500;57.698;11.986;2023-04-19T10:32:37;0.50;;;0.50;;
14817;SDS011;7500;57.698;11.986;2023-04-19T10:35:08;1.73;;;0.70;;
14817;SDS011;7500;57.698;11.986;2023-04-19T10:37:38;2.57;;;0.80;;
14817;SDS011;7500;57.698;11.986;2023-04-19T10:40:05;2.07;;;0.87;;
14817;SDS011;7500;57.698;11.986;2023-04-19T10:45:31;4.10;;;0.67;;
14817;SDS011;7500;57.698;11.986;2023-04-19T10:47:58;5.43;;;0.80;;
14817;SDS011;7500;57.698;11.986;2023-04-19T10:50:25;1.93;;;0.90;;
14817;SDS011;7500;57.698;11.986;2023-04-19T10:52:52;3.70;;;1.00;;
14817;SDS011;7500;57.698;11.986;2023-04-19T10:55:18;1.30;;;1.00;;
14817;SDS011;7500;57.698;11.986;2023-04-19T10:58:00;1.27;;;0.90;;
14817;SDS011;7500;57.698;11.986;2023-04-19T11:00:28;2.57;;;1.10;;
14817;SDS011;7500;57.698;11.986;2023-04-19T11:02:58;0.77;;;0.77;;
14817;SDS011;7500;57.698;11.986;2023-04-19T11:05:25;3.47;;;1.00;;
14817;SDS011;7500;57.698;11.986;2023-04-19T11:07:51;1.37;;;0.90;;
14817;SDS011;7500;57.698;11.986;2023-04-19T11:10:27;0.90;;;0.80;;
14817;SDS011;7500;57.698;11.986;2023-04-19T11:12:53;1.27;;;0.93;;
14817;SDS011;7500;57.698;11.986;2023-04-19T11:15:20;1.33;;;1.00;;
14817;SDS011;7500;57.698;11.986;2023-04-19T11:17:48;0.97;;;0.80;;
14817;SDS011;7500;57.698;11.986;2023-04-19T11:20:17;1.03;;;0.90;;
14817;SDS011;7500;57.698;11.986;2023-04-19T11:22:44;1.23;;;0.73;;
14817;SDS011;7500;57.698;11.986;2023-04-19T11:25:11;1.67;;;0.80;;
14817;SDS011;7500;57.698;11.986;2023-04-19T11:27:38;2.10;;;1.00;;
14817;SDS011;7500;57.698;11.986;2023-04-19T11:30:06;2.53;;;1.10;;
14817;SDS011;7500;57.698;11.986;2023-04-19T11:32:33;1.13;;;0.77;;
14817;SDS011;7500;57.698;11.986;2023-04-19T11:35:04;1.17;;;0.80;;
14817;SDS011;7500;57.698;11.986;2023-04-19T11:37:33;3.20;;;1.10;;
14817;SDS011;7500;57.698;11.986;2023-04-19T11:40:00;3.43;;;1.30;;
14817;SDS011;7500;57.698;11.986;2023-04-19T11:42:26;1.83;;;0.80;;
14817;SDS011;7500;57.698;11.986;2023-04-19T11:44:53;2.10;;;0.80;;
14817;SDS011;7500;57.698;11.986;2023-04-19T11:47:21;2.13;;;0.80;;
14817;SDS011;7500;57.698;11.986;2023-04-19T11:49:48;1.13;;;1.03;;
14817;SDS011;7500;57.698;11.986;2023-04-19T11:52:19;1.60;;;0.87;;
14817;SDS011;7500;57.698;11.986;2023-04-19T11:54:47;1.90;;;0.80;;
14817;SDS011;7500;57.698;11.986;2023-04-19T11:57:13;5.70;;;0.90;;
14817;SDS011;7500;57.698;11.986;2023-04-19T11:59:41;3.83;;;0.90;;
14817;SDS011;7500;57.698;11.986;2023-04-19T12:02:27;4.70;;;1.00;;
14817;SDS011;7500;57.698;11.986;2023-04-19T12:04:53;2.33;;;0.90;;
14817;SDS011;7500;57.698;11.986;2023-04-19T12:07:20;2.53;;;1.00;;
14817;SDS011;7500;57.698;11.986;2023-04-19T12:09:48;3.80;;;1.00;;
14817;SDS011;7500;57.698;11.986;2023-04-19T12:12:30;1.10;;;0.70;;
14817;SDS011;7500;57.698;11.986;2023-04-19T12:14:56;3.23;;;0.80;;
14817;SDS011;7500;57.698;11.986;2023-04-19T12:17:23;3.40;;;0.77;;
14817;SDS011;7500;57.698;11.986;2023-04-19T12:19:49;2.77;;;0.90;;
14817;SDS011;7500;57.698;11.986;2023-04-19T12:22:17;5.00;;;1.10;;
14817;SDS011;7500;57.698;11.986;2023-04-19T12:24:45;1.77;;;0.63;;
14817;SDS011;7500;57.698;11.986;2023-04-19T12:27:15;3.60;;;0.90;;
14817;SDS011;7500;57.698;11.986;2023-04-19T12:29:42;2.00;;;0.77;;
14817;SDS011;7500;57.698;11.986;2023-04-19T12:32:10;0.80;;;0.80;;
14817;SDS011;7500;57.698;11.986;2023-04-19T12:34:37;2.83;;;1.00;;
14817;SDS011;7500;57.698;11.986;2023-04-19T12:37:03;2.43;;;0.80;;
14817;SDS011;7500;57.698;11.986;2023-04-19T12:39:30;1.03;;;0.73;;
14817;SDS011;7500;57.698;11.986;2023-04-19T12:41:57;3.03;;;1.00;;
14817;SDS011;7500;57.698;11.986;2023-04-19T12:44:25;1.60;;;0.70;;
14817;SDS011;7500;57.698;11.986;2023-04-19T12:46:51;1.23;;;0.70;;
14817;SDS011;7500;57.698;11.986;2023-04-19T12:49:21;2.40;;;0.77;;
14817;SDS011;7500;57.698;11.986;2023-04-19T12:51:48;12.23;;;1.03;;
14817;SDS011;7500;57.698;11.986;2023-04-19T12:54:14;4.20;;;1.20;;
14817;SDS011;7500;57.698;11.986;2023-04-19T12:56:41;4.70;;;1.07;;
14817;SDS011;7500;57.698;11.986;2023-04-19T12:59:08;1.30;;;0.90;;
14817;SDS011;7500;57.698;11.986;2023-04-19T13:01:36;1.43;;;0.70;;
14817;SDS011;7500;57.698;11.986;2023-04-19T13:04:03;0.90;;;0.57;;
14817;SDS011;7500;57.698;11.986;2023-04-19T13:06:31;2.80;;;0.87;;
14817;SDS011;7500;57.698;11.986;2023-04-19T13:08:58;0.90;;;0.80;;
14817;SDS011;7500;57.698;11.986;2023-04-19T13:11:24;2.00;;;0.70;;
14817;SDS011;7500;57.698;11.986;2023-04-19T13:13:51;2.07;;;0.70;;
14817;SDS011;7500;57.698;11.986;2023-04-19T13:16:18;0.93;;;0.83;;
14817;SDS011;7500;57.698;11.986;2023-04-19T13:18:46;11.60;;;1.40;;
14817;SDS011;7500;57.698;11.986;2023-04-19T13:21:13;1.57;;;0.70;;
14817;SDS011;7500;57.698;11.986;2023-04-19T13:23:41;2.27;;;0.80;;
14817;SDS011;7500;57.698;11.986;2023-04-19T13:26:07;0.63;;;0.60;;
14817;SDS011;7500;57.698;11.986;2023-04-19T13:28:34;1.53;;;0.73;;
14817;SDS011;7500;57.698;11.986;2023-04-19T13:31:01;1.10;;;0.70;;
14817;SDS011;7500;57.698;11.986;2023-04-19T13:33:28;2.33;;;0.77;;
14817;SDS011;7500;57.698;11.986;2023-04-19T13:35:56;3.00;;;1.00;;
14817;SDS011;7500;57.698;11.986;2023-04-19T13:38:23;3.53;;;0.67;;
14817;SDS011;7500;57.698;11.986;2023-04-19T13:40:50;5.93;;;1.10;;
14817;SDS011;7500;57.698;11.986;2023-04-19T13:43:16;1.60;;;0.70;;
14817;SDS011;7500;57.698;11.986;2023-04-19T13:45:43;1.90;;;0.80;;
14817;SDS011;7500;57.698;11.986;2023-04-19T13:48:09;1.63;;;0.60;;
14817;SDS011;7500;57.698;11.986;2023-04-19T13:50:36;4.87;;;0.80;;
14817;SDS011;7500;57.698;11.986;2023-04-19T13:53:04;1.13;;;0.83;;
14817;SDS011;7500;57.698;11.986;2023-04-19T13:55:30;2.30;;;0.73;;
14817;SDS011;7500;57.698;11.986;2023-04-19T13:57:57;1.43;;;0.60;;
14817;SDS011;7500;57.698;11.986;2023-04-19T14:00:24;1.53;;;0.67;;
14817;SDS011;7500;57.698;11.986;2023-04-19T14:02:51;3.03;;;0.80;;
14817;SDS011;7500;57.698;11.986;2023-04-19T14:05:18;2.40;;;0.73;;
14817;SDS011;7500;57.698;11.986;2023-04-19T14:07:44;0.97;;;0.50;;
14817;SDS011;7500;57.698;11.986;2023-04-19T14:10:12;1.87;;;0.63;;
14817;SDS011;7500;57.698;11.986;2023-04-19T14:12:39;1.90;;;0.70;;
14817;SDS011;7500;57.698;11.986;2023-04-19T14:15:06;1.07;;;0.53;;
14817;SDS011;7500;57.698;11.986;2023-04-19T14:17:33;4.60;;;0.70;;
14817;SDS011;7500;57.698;11.986;2023-04-19T14:20:00;2.10;;;1.00;;
14817;SDS011;7500;57.698;11.986;2023-04-19T14:22:26;1.50;;;0.60;;
14817;SDS011;7500;57.698;11.986;2023-04-19T14:24:53;0.83;;;0.80;;
14817;SDS011;7500;57.698;11.986;2023-04-19T14:27:21;2.67;;;0.70;;
14817;SDS011;7500;57.698;11.986;2023-04-19T14:29:48;0.93;;;0.60;;
14817;SDS011;7500;57.698;11.986;2023-04-19T14:32:15;0.63;;;0.53;;
14817;SDS011;7500;57.698;11.986;2023-04-19T14:34:41;4.13;;;0.83;;
14817;SDS011;7500;57.698;11.986;2023-04-19T14:37:08;0.87;;;0.50;;
14817;SDS011;7500;57.698;11.986;2023-04-19T14:39:35;4.43;;;0.70;;
14817;SDS011;7500;57.698;11.986;2023-04-19T14:42:01;4.87;;;0.80;;
14817;SDS011;7500;57.698;11.986;2023-04-19T14:44:30;1.90;;;0.53;;
14817;SDS011;7500;57.698;11.986;2023-04-19T14:46:57;1.30;;;0.70;;
14817;SDS011;7500;57.698;11.986;2023-04-19T14:49:23;2.90;;;0.60;;
14817;SDS011;7500;57.698;11.986;2023-04-19T14:51:50;1.70;;;0.57;;